createdAt,value
2019-02-16T00:00:26.437Z,3.2
2019-02-16T00:03:25.645Z,3.1
2019-02-16T00:06:26.472Z,3
2019-02-16T00:09:25.296Z,3.2
2019-02-16T00:12:25.490Z,3
2019-02-16T00:15:25.508Z,3
2019-02-16T00:18:25.363Z,2.9
2019-02-16T00:21:27.298Z,3
2019-02-16T00:24:25.518Z,2.9
2019-02-16T00:27:25.497Z,2.9
2019-02-16T00:30:25.151Z,3.1
2019-02-16T00:33:25.084Z,3
2019-02-16T00:36:25.703Z,3
2019-02-16T00:39:25.429Z,3
2019-02-16T00:42:25.084Z,3
2019-02-16T00:45:25.512Z,3.2
2019-02-16T00:48:25.469Z,3.1
2019-02-16T00:51:25.627Z,3
2019-02-16T00:54:25.968Z,3
2019-02-16T00:57:25.804Z,2.9
2019-02-16T01:00:25.193Z,3
2019-02-16T01:03:25.110Z,3.1
2019-02-16T01:06:25.891Z,3
2019-02-16T01:09:25.112Z,3.1
2019-02-16T01:12:25.524Z,3.1
2019-02-16T01:15:25.354Z,2.9
2019-02-16T01:18:25.120Z,2.8
2019-02-16T01:21:25.261Z,2.9
2019-02-16T01:24:24.931Z,3
2019-02-16T01:27:24.958Z,2.9
2019-02-16T01:30:25.769Z,2.8
2019-02-16T01:33:27.039Z,2.9
2019-02-16T01:36:24.876Z,2.9
2019-02-16T01:39:25.551Z,2.8
2019-02-16T01:42:25.204Z,3
2019-02-16T01:45:25.035Z,2.9
2019-02-16T01:48:26.161Z,3.4
2019-02-16T01:51:32.503Z,3
2019-02-16T01:54:26.863Z,3
2019-02-16T01:57:25.516Z,2.8
2019-02-16T02:00:25.308Z,2.7
2019-02-16T02:03:25.563Z,2.9
2019-02-16T02:06:25.300Z,2.8
2019-02-16T02:09:25.667Z,2.8
2019-02-16T02:12:25.330Z,2.9
2019-02-16T02:15:25.184Z,3
2019-02-16T02:18:26.927Z,3
2019-02-16T02:21:25.477Z,2.8
2019-02-16T02:24:25.298Z,2.7
2019-02-16T02:27:26.029Z,2.7
2019-02-16T02:30:25.509Z,2.7
2019-02-16T02:33:25.887Z,2.9
2019-02-16T02:36:25.459Z,2.8
2019-02-16T02:39:25.359Z,2.8
2019-02-16T02:42:25.360Z,2.9
2019-02-16T02:45:25.204Z,2.8
2019-02-16T02:48:25.036Z,2.7
2019-02-16T02:51:26.008Z,2.9
2019-02-16T02:54:25.845Z,2.9
2019-02-16T02:57:24.948Z,3
2019-02-16T03:00:25.043Z,3
2019-02-16T03:03:25.398Z,2.9
2019-02-16T03:06:25.837Z,2.9
2019-02-16T03:09:25.025Z,3
2019-02-16T03:12:25.893Z,2.9
2019-02-16T03:15:25.483Z,2.8
2019-02-16T03:18:25.237Z,2.8
2019-02-16T03:21:26.048Z,3
2019-02-16T03:24:25.302Z,3
2019-02-16T03:27:25.279Z,2.8
2019-02-16T03:30:25.530Z,3
2019-02-16T03:33:25.401Z,2.9
2019-02-16T03:36:25.692Z,2.9
2019-02-16T03:39:26.082Z,2.8
2019-02-16T03:42:25.585Z,2.9
2019-02-16T03:45:25.394Z,2.9
2019-02-16T03:48:25.262Z,3
2019-02-16T03:51:25.053Z,3
2019-02-16T03:54:25.718Z,3
2019-02-16T03:57:25.278Z,3
2019-02-16T04:00:26.094Z,3
2019-02-16T04:03:25.230Z,3
2019-02-16T04:06:25.042Z,2.9
2019-02-16T04:09:25.211Z,3
2019-02-16T04:12:25.385Z,3
2019-02-16T04:15:25.120Z,3
2019-02-16T04:18:25.059Z,3
2019-02-16T04:21:25.159Z,3
2019-02-16T04:24:25.727Z,3
2019-02-16T04:27:25.313Z,3
2019-02-16T04:30:24.986Z,2.9
2019-02-16T04:33:25.110Z,3.1
2019-02-16T04:36:25.224Z,3
2019-02-16T04:39:25.981Z,3
2019-02-16T04:42:25.095Z,3
2019-02-16T04:45:26.253Z,3
2019-02-16T04:48:25.988Z,2.9
2019-02-16T04:51:25.339Z,3
2019-02-16T04:54:25.020Z,3.1
2019-02-16T04:57:25.892Z,2.9
2019-02-16T05:00:25.041Z,2.9
2019-02-16T05:03:25.047Z,3
2019-02-16T05:06:25.196Z,2.9
2019-02-16T05:09:25.338Z,2.8
2019-02-16T05:12:25.286Z,2.9
2019-02-16T05:15:25.589Z,2.8
2019-02-16T05:18:25.757Z,2.8
2019-02-16T05:21:25.106Z,2.7
2019-02-16T05:24:25.146Z,2.7
2019-02-16T05:27:26.506Z,2.8
2019-02-16T05:30:25.709Z,2.9
2019-02-16T05:33:25.472Z,2.9
2019-02-16T05:36:26.954Z,2.8
2019-02-16T05:39:25.573Z,3.1
2019-02-16T05:42:25.218Z,3
2019-02-16T05:45:24.964Z,2.9
2019-02-16T05:48:25.769Z,2.8
2019-02-16T05:51:25.754Z,2.8
2019-02-16T05:54:25.303Z,2.8
2019-02-16T05:57:25.073Z,2.7
2019-02-16T06:00:25.497Z,2.7
2019-02-16T06:03:25.261Z,2.7
2019-02-16T06:06:25.484Z,2.8
2019-02-16T06:09:25.831Z,2.8
2019-02-16T06:12:25.087Z,2.7
2019-02-16T06:15:25.878Z,2.6
2019-02-16T06:18:25.137Z,2.5
2019-02-16T06:21:25.627Z,2.6
2019-02-16T06:24:25.673Z,2.6
2019-02-16T06:27:25.592Z,2.6
2019-02-16T06:30:25.239Z,2.6
2019-02-16T06:33:26.278Z,2.6
2019-02-16T06:36:25.074Z,2.6
2019-02-16T06:39:25.207Z,2.6
2019-02-16T06:42:25.164Z,2.6
2019-02-16T06:45:26.919Z,2.7
2019-02-16T06:48:25.990Z,2.6
2019-02-16T06:51:26.970Z,2.7
2019-02-16T06:54:25.446Z,6.3
2019-02-16T06:57:25.277Z,6
2019-02-16T07:00:25.447Z,6.8
2019-02-16T07:03:25.543Z,6.1
2019-02-16T07:06:24.768Z,5.6
2019-02-16T07:09:25.076Z,5
2019-02-16T07:12:24.923Z,4.6
2019-02-16T07:15:25.874Z,4.6
2019-02-16T07:18:25.237Z,5
2019-02-16T07:21:25.207Z,5.1
2019-02-16T07:24:26.784Z,4.9
2019-02-16T07:27:25.413Z,4.8
2019-02-16T07:30:25.060Z,4.9
2019-02-16T07:33:25.114Z,4.2
2019-02-16T07:36:25.847Z,3.9
2019-02-16T07:39:25.242Z,3.7
2019-02-16T07:42:25.344Z,3.7
2019-02-16T07:45:25.353Z,4
2019-02-16T07:48:24.937Z,3.7
2019-02-16T07:51:25.266Z,4
2019-02-16T07:54:24.952Z,4.3
2019-02-16T07:57:26.078Z,3.8
2019-02-16T08:00:25.244Z,3.7
2019-02-16T08:03:25.724Z,3.5
2019-02-16T08:06:25.425Z,3.4
2019-02-16T08:09:25.730Z,3.3
2019-02-16T08:12:24.918Z,3.3
2019-02-16T08:15:24.979Z,3.7
2019-02-16T08:18:25.614Z,3.4
2019-02-16T08:21:24.918Z,3.3
2019-02-16T08:24:25.356Z,3.2
2019-02-16T08:27:24.971Z,3.4
2019-02-16T08:30:24.843Z,3.8
2019-02-16T08:33:24.874Z,3.5
2019-02-16T08:36:25.227Z,3.2
2019-02-16T08:39:25.368Z,3.2
2019-02-16T08:42:24.908Z,3.2
2019-02-16T08:45:24.871Z,3.3
2019-02-16T08:48:24.944Z,3.2
2019-02-16T08:51:25.119Z,3.1
2019-02-16T08:54:24.936Z,3.1
2019-02-16T08:57:26.758Z,3.1
2019-02-16T09:00:24.973Z,3.1
2019-02-16T09:03:24.767Z,3.1
2019-02-16T09:06:24.955Z,3.1
2019-02-16T09:09:25.423Z,3.1
2019-02-16T09:12:24.998Z,3.1
2019-02-16T09:15:24.879Z,3
2019-02-16T09:18:24.990Z,3
2019-02-16T09:21:25.246Z,3.3
2019-02-16T09:24:25.324Z,3.1
2019-02-16T09:27:25.269Z,3.2
2019-02-16T09:30:25.005Z,4
2019-02-16T09:33:25.275Z,5.1
2019-02-16T09:36:25.056Z,6.6
2019-02-16T09:39:25.951Z,5.5
2019-02-16T09:42:25.048Z,4.6
2019-02-16T09:45:25.481Z,3.9
2019-02-16T09:48:25.215Z,4.1
2019-02-16T09:51:26.757Z,4.3
2019-02-16T09:54:24.809Z,5
2019-02-16T09:57:25.068Z,4.3
2019-02-16T10:00:24.957Z,3.7
2019-02-16T10:03:25.484Z,5.6
2019-02-16T10:06:25.674Z,5.9
2019-02-16T10:09:25.210Z,5
2019-02-16T10:12:25.096Z,4
2019-02-16T10:15:25.214Z,4.7
2019-02-16T10:18:25.022Z,4.1
2019-02-16T10:21:25.246Z,3.9
2019-02-16T10:24:25.297Z,3.7
2019-02-16T10:27:25.188Z,4.2
2019-02-16T10:30:25.321Z,5.8
2019-02-16T10:33:25.244Z,5.7
2019-02-16T10:36:25.045Z,6.3
2019-02-16T10:39:25.545Z,6.1
2019-02-16T10:42:28.087Z,6.9
2019-02-16T10:45:24.853Z,10
2019-02-16T10:48:25.241Z,10.6
2019-02-16T10:51:24.960Z,9.2
2019-02-16T10:54:30.016Z,9
2019-02-16T10:57:25.111Z,7.9
2019-02-16T11:00:25.348Z,10
2019-02-16T11:03:26.739Z,9.5
2019-02-16T11:06:26.759Z,8.3
2019-02-16T11:09:25.317Z,6.9
2019-02-16T11:12:25.193Z,6
2019-02-16T11:15:25.123Z,7.1
2019-02-16T11:18:25.151Z,6.5
2019-02-16T11:21:25.100Z,5.3
2019-02-16T11:24:25.327Z,5.2
2019-02-16T11:27:25.905Z,6.1
2019-02-16T11:30:24.926Z,5.3
2019-02-16T11:33:25.691Z,5
2019-02-16T11:36:25.296Z,4.8
2019-02-16T11:39:24.993Z,4.8
2019-02-16T11:42:24.885Z,5.2
2019-02-16T11:45:24.788Z,5.1
2019-02-16T11:48:25.304Z,4.9
2019-02-16T11:51:26.707Z,4.6
2019-02-16T11:54:25.777Z,4.4
2019-02-16T11:57:25.384Z,4
2019-02-16T12:00:24.912Z,4.4
2019-02-16T12:03:25.362Z,5.5
2019-02-16T12:06:24.821Z,5
2019-02-16T12:09:24.983Z,4
2019-02-16T12:12:25.277Z,4.4
2019-02-16T12:15:25.179Z,5.1
2019-02-16T12:18:25.242Z,4.6
2019-02-16T12:21:24.886Z,4.2
2019-02-16T12:24:25.515Z,3.9
2019-02-16T12:27:24.960Z,4.2
2019-02-16T12:30:25.115Z,4.2
2019-02-16T12:33:25.143Z,3.8
2019-02-16T12:36:25.590Z,4
2019-02-16T12:39:25.241Z,4
2019-02-16T12:42:25.155Z,3.7
2019-02-16T12:45:24.736Z,3.9
2019-02-16T12:48:24.959Z,3.7
2019-02-16T12:51:25.106Z,3.7
2019-02-16T12:54:25.011Z,3.6
2019-02-16T12:57:25.040Z,3.7
2019-02-16T13:00:25.058Z,3.6
2019-02-16T13:03:25.384Z,3.4
2019-02-16T13:06:24.910Z,5.5
2019-02-16T13:09:25.277Z,4.5
2019-02-16T13:12:25.194Z,4.4
2019-02-16T13:15:24.719Z,4.4
2019-02-16T13:18:26.723Z,3.6
2019-02-16T13:21:25.528Z,3.4
2019-02-16T13:24:24.905Z,3.3
2019-02-16T13:27:24.939Z,3
2019-02-16T13:30:25.502Z,3.2
2019-02-16T13:33:24.877Z,3.1
2019-02-16T13:36:24.853Z,3.5
2019-02-16T13:39:25.102Z,3
2019-02-16T13:42:25.616Z,2.8
2019-02-16T13:45:24.932Z,3
2019-02-16T13:48:24.792Z,3.1
2019-02-16T13:51:25.044Z,3.5
2019-02-16T13:54:26.873Z,3.1
2019-02-16T13:57:25.069Z,3
2019-02-16T14:00:24.933Z,2.9
2019-02-16T14:03:24.995Z,3.2
2019-02-16T14:06:24.759Z,3
2019-02-16T14:09:24.732Z,3.3
2019-02-16T14:12:24.602Z,3
2019-02-16T14:15:24.736Z,3
2019-02-16T14:18:25.696Z,3
2019-02-16T14:21:25.029Z,3
2019-02-16T14:24:24.930Z,2.8
2019-02-16T14:27:25.122Z,3.2
2019-02-16T14:30:24.985Z,3.1
2019-02-16T14:33:24.816Z,2.8
2019-02-16T14:36:24.920Z,2.7
2019-02-16T14:39:25.127Z,2.8
2019-02-16T14:42:26.697Z,2.7
2019-02-16T14:45:26.540Z,2.6
2019-02-16T14:48:25.629Z,2.6
2019-02-16T14:51:26.643Z,2.7
2019-02-16T14:54:25.099Z,2.6
2019-02-16T14:57:24.901Z,2.6
2019-02-16T15:00:25.114Z,2.5
2019-02-16T15:03:25.143Z,2.5
2019-02-16T15:06:24.728Z,2.5
2019-02-16T15:09:25.073Z,2.5
2019-02-16T15:12:24.838Z,2.5
2019-02-16T15:15:25.139Z,2.5
2019-02-16T15:18:24.820Z,2.6
2019-02-16T15:21:26.726Z,2.7
2019-02-16T15:24:24.639Z,2.6
2019-02-16T15:27:24.921Z,2.7
2019-02-16T15:30:24.811Z,2.6
2019-02-16T15:33:24.858Z,2.8
2019-02-16T15:36:24.773Z,2.8
2019-02-16T15:39:25.244Z,2.8
2019-02-16T15:42:24.855Z,2.7
2019-02-16T15:45:25.073Z,2.8
2019-02-16T15:48:24.911Z,2.8
2019-02-16T15:51:25.094Z,3.4
2019-02-16T15:54:26.641Z,3.4
2019-02-16T15:57:24.623Z,3.2
2019-02-16T16:00:26.124Z,3
2019-02-16T16:03:26.690Z,3.1
2019-02-16T16:06:24.883Z,3
2019-02-16T16:09:25.280Z,2.9
2019-02-16T16:12:25.030Z,2.8
2019-02-16T16:15:24.858Z,2.7
2019-02-16T16:18:24.820Z,3.3
2019-02-16T16:21:25.222Z,3
2019-02-16T16:24:25.237Z,3.6
2019-02-16T16:27:24.882Z,4.1
2019-02-16T16:30:25.237Z,3.9
2019-02-16T16:33:24.669Z,3.4
2019-02-16T16:36:24.860Z,3.6
2019-02-16T16:39:25.110Z,3
2019-02-16T16:42:24.825Z,2.8
2019-02-16T16:45:24.976Z,2.8
2019-02-16T16:48:24.584Z,2.8
2019-02-16T16:51:26.513Z,2.9
2019-02-16T16:54:24.813Z,2.8
2019-02-16T16:57:24.856Z,3.3
2019-02-16T17:00:25.586Z,4.4
2019-02-16T17:03:25.214Z,3.6
2019-02-16T17:06:24.746Z,3.1
2019-02-16T17:09:24.833Z,2.8
2019-02-16T17:12:24.769Z,2.6
2019-02-16T17:15:25.843Z,2.6
2019-02-16T17:18:25.190Z,2.5
2019-02-16T17:21:25.767Z,2.6
2019-02-16T17:24:25.533Z,2.8
2019-02-16T17:27:24.837Z,2.9
2019-02-16T17:30:24.936Z,2.7
2019-02-16T17:33:25.119Z,2.9
2019-02-16T17:36:24.848Z,2.7
2019-02-16T17:39:24.879Z,2.7
2019-02-16T17:42:25.170Z,2.6
2019-02-16T17:45:24.883Z,2.8
2019-02-16T17:48:25.070Z,2.8
2019-02-16T17:51:24.788Z,2.7
2019-02-16T17:54:24.593Z,2.8
2019-02-16T17:57:24.641Z,2.7
2019-02-16T18:00:25.165Z,2.8
2019-02-16T18:03:24.886Z,3.6
2019-02-16T18:06:25.191Z,3.7
2019-02-16T18:09:24.957Z,3.2
2019-02-16T18:12:25.233Z,2.9
2019-02-16T18:15:24.671Z,2.9
2019-02-16T18:18:24.946Z,3.1
2019-02-16T18:21:24.978Z,3.1
2019-02-16T18:24:24.857Z,3
2019-02-16T18:27:26.436Z,2.9
2019-02-16T18:30:25.565Z,2.9
2019-02-16T18:33:25.098Z,3.1
2019-02-16T18:36:25.951Z,3.5
2019-02-16T18:39:25.052Z,3.2
2019-02-16T18:42:24.647Z,3.2
2019-02-16T18:45:24.826Z,3.1
2019-02-16T18:48:25.549Z,3.3
2019-02-16T18:51:25.269Z,3.2
2019-02-16T18:54:24.794Z,3.5
2019-02-16T18:57:25.038Z,3.4
2019-02-16T19:00:25.070Z,3.2
2019-02-16T19:03:25.056Z,3.1
2019-02-16T19:06:25.109Z,3.1
2019-02-16T19:09:25.079Z,3.1
2019-02-16T19:12:24.928Z,3.3
2019-02-16T19:15:25.274Z,3.1
2019-02-16T19:18:25.114Z,3.1
2019-02-16T19:21:24.555Z,3
2019-02-16T19:24:24.873Z,3.1
2019-02-16T19:27:25.003Z,3.6
2019-02-16T19:30:25.078Z,3.7
2019-02-16T19:33:25.046Z,4.3
2019-02-16T19:36:25.225Z,3.8
2019-02-16T19:39:24.794Z,3.5
2019-02-16T19:42:24.747Z,5
2019-02-16T19:45:25.439Z,4.6
2019-02-16T19:48:25.149Z,4
2019-02-16T19:51:25.028Z,3.8
2019-02-16T19:54:25.287Z,3.7
2019-02-16T19:57:27.927Z,3.6
2019-02-16T20:00:24.576Z,3.5
2019-02-16T20:03:26.103Z,3.4
2019-02-16T20:06:25.503Z,4
2019-02-16T20:09:25.993Z,3.7
2019-02-16T20:12:26.332Z,3.6
2019-02-16T20:15:25.817Z,3.5
2019-02-16T20:18:24.842Z,3.6
2019-02-16T20:21:24.815Z,3.8
2019-02-16T20:24:24.640Z,3.9
2019-02-16T20:27:24.824Z,4.5
2019-02-16T20:30:24.839Z,4
2019-02-16T20:33:25.048Z,4.2
2019-02-16T20:36:25.636Z,4.1
2019-02-16T20:39:24.905Z,4.7
2019-02-16T20:42:25.546Z,4.5
2019-02-16T20:45:25.080Z,5.1
2019-02-16T20:48:24.658Z,5.8
2019-02-16T20:51:25.902Z,5.2
2019-02-16T20:54:25.181Z,7.9
2019-02-16T20:57:24.779Z,6.5
2019-02-16T21:00:25.134Z,5.7
2019-02-16T21:03:24.859Z,6.3
2019-02-16T21:06:24.799Z,5.5
2019-02-16T21:09:25.018Z,4.8
2019-02-16T21:12:24.728Z,4.5
2019-02-16T21:15:24.984Z,4.8
2019-02-16T21:18:25.514Z,4.6
2019-02-16T21:21:24.987Z,4.7
2019-02-16T21:24:26.544Z,4.9
2019-02-16T21:27:24.625Z,5
2019-02-16T21:30:25.290Z,4.5
2019-02-16T21:33:25.268Z,4.4
2019-02-16T21:36:24.812Z,4.5
2019-02-16T21:39:24.830Z,4.7
2019-02-16T21:42:24.744Z,5
2019-02-16T21:45:25.151Z,4.6
2019-02-16T21:48:24.989Z,5
2019-02-16T21:51:24.779Z,4.5
2019-02-16T21:54:24.881Z,4.8
2019-02-16T21:57:24.945Z,4.9
2019-02-16T22:00:24.540Z,4.6
2019-02-16T22:03:26.399Z,4.8
2019-02-16T22:06:25.845Z,4.5
2019-02-16T22:09:24.370Z,4.4
2019-02-16T22:12:24.794Z,4.7
2019-02-16T22:15:24.951Z,4.6
2019-02-16T22:18:24.755Z,4.5
2019-02-16T22:21:24.846Z,4.5
2019-02-16T22:24:25.130Z,4.5
2019-02-16T22:27:25.593Z,4.7
2019-02-16T22:30:26.526Z,4.8
2019-02-16T22:33:26.450Z,4.6
2019-02-16T22:36:24.984Z,4.7
2019-02-16T22:39:24.859Z,4.5
2019-02-16T22:42:24.857Z,4.5
2019-02-16T22:45:24.671Z,4.4
2019-02-16T22:48:26.318Z,4.4
2019-02-16T22:51:24.704Z,4.5
2019-02-16T22:54:24.737Z,4.5
2019-02-16T22:57:24.853Z,4.5
2019-02-16T23:00:24.868Z,4.5
2019-02-16T23:03:24.617Z,4.4
2019-02-16T23:06:25.495Z,4.6
2019-02-16T23:09:25.405Z,4.4
2019-02-16T23:12:25.184Z,4.4
2019-02-16T23:15:24.488Z,4.7
2019-02-16T23:18:25.171Z,4.8
2019-02-16T23:21:24.450Z,4.7
2019-02-16T23:24:25.498Z,4.5
2019-02-16T23:27:25.535Z,4.4
2019-02-16T23:30:24.879Z,4.8
2019-02-16T23:33:25.230Z,4.6
2019-02-16T23:36:24.754Z,4.5
2019-02-16T23:39:24.983Z,4.5
2019-02-16T23:42:24.776Z,4.5
2019-02-16T23:45:25.180Z,4.7
2019-02-16T23:48:25.041Z,4.6
2019-02-16T23:51:24.859Z,4.6
2019-02-16T23:54:25.893Z,4.7
2019-02-16T23:57:24.500Z,4.6
